createdAt,value
2022-08-04T00:02:56.116Z,98221.84
2022-08-04T00:05:58.077Z,98226.09
2022-08-04T00:08:33.489Z,98220.16
2022-08-04T00:11:02.099Z,98226.56
2022-08-04T00:13:31.757Z,98220.97
2022-08-04T00:16:04.302Z,98217.75
2022-08-04T00:18:40.125Z,98212.16
2022-08-04T00:21:10.093Z,98209.66
2022-08-04T00:24:11.848Z,98203.59
2022-08-04T00:26:30.927Z,98208.53
2022-08-04T00:28:57.928Z,98205.06
2022-08-04T00:31:54.245Z,98213.78
2022-08-04T00:34:13.918Z,98214.59
2022-08-04T00:36:44.166Z,98213.94
2022-08-04T00:39:16.466Z,98213.34
2022-08-04T00:42:01.156Z,98219.09
2022-08-04T00:44:58.021Z,98221.75
2022-08-04T00:47:32.325Z,98218.84
2022-08-04T00:50:23.942Z,98219.00
2022-08-04T00:53:02.242Z,98211.06
2022-08-04T00:55:59.461Z,98209.00
2022-08-04T00:58:54.543Z,98204.53
2022-08-04T01:01:32.780Z,98214.53
2022-08-04T01:04:03.850Z,98215.91
2022-08-04T01:07:17.755Z,98214.53
2022-08-04T01:09:57.909Z,98214.63
2022-08-04T01:13:03.264Z,98218.97
2022-08-04T01:16:00.656Z,98222.53
2022-08-04T01:18:35.916Z,98217.97
2022-08-04T01:21:23.514Z,98217.84
2022-08-04T01:23:59.713Z,98219.78
2022-08-04T01:26:55.118Z,98222.78
2022-08-04T01:29:34.352Z,98222.31
2022-08-04T01:32:27.835Z,98223.91
2022-08-04T01:35:15.448Z,98226.66
2022-08-04T01:37:56.966Z,98230.44
2022-08-04T01:40:27.122Z,98236.03
2022-08-04T01:42:55.328Z,98236.25
2022-08-04T01:45:25.082Z,98242.44
2022-08-04T01:47:54.332Z,98242.69
2022-08-04T01:50:21.967Z,98245.03
2022-08-04T01:52:51.316Z,98240.47
2022-08-04T01:55:18.934Z,98245.72
2022-08-04T01:57:52.187Z,98238.50
2022-08-04T02:00:21.647Z,98240.38
2022-08-04T02:02:50.173Z,98239.47
2022-08-04T02:05:19.662Z,98237.16
2022-08-04T02:08:00.474Z,98237.03
2022-08-04T02:10:42.092Z,98244.00
2022-08-04T02:13:37.876Z,98238.19
2022-08-04T02:16:16.302Z,98245.84
2022-08-04T02:19:00.028Z,98254.78
2022-08-04T02:21:27.818Z,98252.00
2022-08-04T02:24:14.252Z,98246.06
2022-08-04T02:26:42.873Z,98251.00
2022-08-04T02:29:16.904Z,98247.94
2022-08-04T02:32:01.638Z,98238.88
2022-08-04T02:34:47.792Z,98242.75
2022-08-04T02:37:17.533Z,98240.94
2022-08-04T02:39:48.428Z,98234.50
2022-08-04T02:42:16.687Z,98240.47
2022-08-04T02:44:46.519Z,98232.22
2022-08-04T02:47:13.849Z,98241.13
2022-08-04T02:49:42.268Z,98228.97
2022-08-04T02:52:12.588Z,98234.03
2022-08-04T02:54:40.268Z,98239.19
2022-08-04T02:57:12.230Z,98238.69
2022-08-04T03:00:04.162Z,98238.50
2022-08-04T03:02:45.889Z,98232.84
2022-08-04T03:05:21.882Z,98229.78
2022-08-04T03:08:14.462Z,98229.38
2022-08-04T03:11:12.089Z,98228.97
2022-08-04T03:13:58.484Z,98227.53
2022-08-04T03:16:33.493Z,98225.41
2022-08-04T03:19:34.404Z,98224.28
2022-08-04T03:22:23.404Z,98225.69
2022-08-04T03:25:05.462Z,98218.63
2022-08-04T03:28:10.060Z,98222.50
2022-08-04T03:31:05.965Z,98227.31
2022-08-04T03:34:10.738Z,98223.63
2022-08-04T03:37:11.407Z,98224.75
2022-08-04T03:39:52.822Z,98223.16
2022-08-04T03:42:41.028Z,98228.72
2022-08-04T03:45:41.013Z,98226.75
2022-08-04T03:48:52.467Z,98231.59
2022-08-04T03:51:54.958Z,98243.47
2022-08-04T03:54:57.023Z,98228.78
2022-08-04T03:57:56.998Z,98241.88
2022-08-04T04:00:54.154Z,98237.38
2022-08-04T04:03:28.413Z,98237.22
2022-08-04T04:06:12.373Z,98236.91
2022-08-04T04:09:02.953Z,98239.19
2022-08-04T04:11:35.152Z,98245.31
2022-08-04T04:14:38.869Z,98247.56
2022-08-04T04:17:40.099Z,98248.75
2022-08-04T04:20:26.324Z,98246.34
2022-08-04T04:23:23.603Z,98255.69
2022-08-04T04:26:06.482Z,98262.16
2022-08-04T04:28:45.460Z,98263.09
2022-08-04T04:31:54.820Z,98263.72
2022-08-04T04:34:50.117Z,98264.91
2022-08-04T04:37:22.010Z,98263.09
2022-08-04T04:40:09.965Z,98271.00
2022-08-04T04:42:55.040Z,98274.69
2022-08-04T04:45:40.265Z,98273.38
2022-08-04T04:48:17.730Z,98275.16
2022-08-04T04:50:55.241Z,98277.78
2022-08-04T04:53:38.628Z,98276.81
2022-08-04T04:56:11.940Z,98279.75
2022-08-04T04:58:39.818Z,98273.41
2022-08-04T05:01:35.101Z,98279.22
2022-08-04T05:04:25.338Z,98284.97
2022-08-04T05:07:19.949Z,98273.38
2022-08-04T05:09:56.145Z,98275.34
2022-08-04T05:14:32.718Z,98282.75
2022-08-04T05:15:37.505Z,98281.69
2022-08-04T05:18:07.991Z,98280.50
2022-08-04T05:20:40.837Z,98286.94
2022-08-04T05:23:15.767Z,98293.03
2022-08-04T05:25:59.185Z,98287.34
2022-08-04T05:28:38.333Z,98289.53
2022-08-04T05:31:26.860Z,98286.50
2022-08-04T05:34:07.264Z,98295.94
2022-08-04T05:36:41.821Z,98291.97
2022-08-04T05:39:14.368Z,98293.38
2022-08-04T05:41:45.607Z,98289.44
2022-08-04T05:44:17.958Z,98288.19
2022-08-04T05:46:54.189Z,98294.72
2022-08-04T05:49:27.159Z,98288.59
2022-08-04T05:51:55.976Z,98297.66
2022-08-04T05:54:24.408Z,98291.84
2022-08-04T05:56:51.876Z,98289.66
2022-08-04T05:59:20.538Z,98294.94
2022-08-04T06:01:55.418Z,98294.13
2022-08-04T06:04:27.896Z,98294.22
2022-08-04T06:06:54.654Z,98289.41
2022-08-04T06:09:21.267Z,98294.63
2022-08-04T06:12:03.492Z,98300.25
2022-08-04T06:14:40.440Z,98294.78
2022-08-04T06:18:33.110Z,98291.34
2022-08-04T06:20:20.028Z,98290.88
2022-08-04T06:22:45.836Z,98295.31
2022-08-04T06:25:17.978Z,98289.91
2022-08-04T06:27:44.925Z,98281.31
2022-08-04T06:30:14.663Z,98291.88
2022-08-04T06:32:48.572Z,98284.41
2022-08-04T06:35:17.911Z,98288.69
2022-08-04T06:37:46.628Z,98290.72
2022-08-04T06:40:31.867Z,98285.66
2022-08-04T06:43:04.959Z,98282.03
2022-08-04T06:45:34.598Z,98289.84
2022-08-04T06:48:02.655Z,98292.75
2022-08-04T06:51:24.796Z,98296.25
2022-08-04T06:53:17.531Z,98296.28
2022-08-04T06:55:46.663Z,98298.84
2022-08-04T06:58:14.835Z,98286.22
2022-08-04T07:00:44.007Z,98290.41
2022-08-04T07:03:11.508Z,98292.97
2022-08-04T07:05:39.987Z,98297.88
2022-08-04T07:08:07.500Z,98292.97
2022-08-04T07:10:34.345Z,98295.66
2022-08-04T07:13:01.722Z,98287.06
2022-08-04T07:15:28.474Z,98290.22
2022-08-04T07:18:00.125Z,98289.91
2022-08-04T07:20:34.260Z,98288.69
2022-08-04T07:23:02.109Z,98288.69
2022-08-04T07:25:57.290Z,98287.31
2022-08-04T07:28:15.352Z,98289.16
2022-08-04T07:30:44.897Z,98291.22
2022-08-04T07:33:11.818Z,98297.03
2022-08-04T07:36:10.544Z,98286.75
2022-08-04T07:38:27.583Z,98284.09
2022-08-04T07:40:55.037Z,98296.91
2022-08-04T07:43:21.763Z,98289.75
2022-08-04T07:45:48.595Z,98284.53
2022-08-04T07:48:15.590Z,98283.69
2022-08-04T07:50:44.481Z,98291.47
2022-08-04T07:53:54.822Z,98291.72
2022-08-04T07:56:00.517Z,98286.53
2022-08-04T07:58:30.062Z,98286.31
2022-08-04T08:00:57.712Z,98282.81
2022-08-04T08:03:25.305Z,98289.50
2022-08-04T08:06:17.683Z,98279.53
2022-08-04T08:08:40.027Z,98278.81
2022-08-04T08:11:07.501Z,98292.84
2022-08-04T08:13:36.551Z,98283.50
2022-08-04T08:16:03.693Z,98280.28
2022-08-04T08:18:31.038Z,98283.41
2022-08-04T08:20:58.145Z,98279.38
2022-08-04T08:23:26.225Z,98283.22
2022-08-04T08:25:52.890Z,98283.09
2022-08-04T08:28:19.440Z,98283.56
2022-08-04T08:30:45.905Z,98279.16
2022-08-04T08:33:20.548Z,98276.81
2022-08-04T08:35:52.097Z,98277.56
2022-08-04T08:38:34.534Z,98276.81
2022-08-04T08:41:19.917Z,98283.34
2022-08-04T08:44:30.066Z,98278.72
2022-08-04T08:48:05.724Z,98277.41
2022-08-04T08:51:00.750Z,98276.00
2022-08-04T08:53:50.788Z,98273.31
2022-08-04T08:56:31.527Z,98271.41
2022-08-04T08:59:26.418Z,98280.72
2022-08-04T09:02:11.300Z,98279.50
2022-08-04T09:04:46.953Z,98268.84
2022-08-04T09:07:48.155Z,98271.97
2022-08-04T09:10:41.217Z,98273.47
2022-08-04T09:13:26.755Z,98267.50
2022-08-04T09:16:18.958Z,98263.78
2022-08-04T09:18:54.978Z,98264.56
2022-08-04T09:21:33.699Z,98263.63
2022-08-04T09:24:35.927Z,98268.69
2022-08-04T09:27:30.830Z,98267.09
2022-08-04T09:29:57.246Z,98280.72
2022-08-04T09:32:41.428Z,98267.22
2022-08-04T09:35:38.593Z,98270.44
2022-08-04T09:38:20.793Z,98277.88
2022-08-04T09:41:03.942Z,98265.56
2022-08-04T09:44:50.315Z,98260.38
2022-08-04T09:47:00.268Z,98264.22
2022-08-04T09:49:38.680Z,98264.50
2022-08-04T09:52:23.590Z,98254.63
2022-08-04T09:55:05.380Z,98261.03
2022-08-04T09:57:31.770Z,98258.88
2022-08-04T10:00:05.607Z,98255.34
2022-08-04T10:02:35.983Z,98256.75
2022-08-04T10:05:05.220Z,98253.34
2022-08-04T10:07:43.860Z,98247.72
2022-08-04T10:10:56.705Z,98249.19
2022-08-04T10:13:42.298Z,98235.63
2022-08-04T10:16:35.720Z,98234.56
2022-08-04T10:19:10.666Z,98228.91
2022-08-04T10:22:27.340Z,98223.97
2022-08-04T10:24:53.911Z,98220.88
2022-08-04T10:27:48.875Z,98215.84
2022-08-04T10:30:18.636Z,98212.22
2022-08-04T10:33:10.389Z,98210.44
2022-08-04T10:36:02.964Z,98201.25
2022-08-04T10:38:41.874Z,98197.44
2022-08-04T10:41:47.238Z,98201.31
2022-08-04T10:44:44.155Z,98199.66
2022-08-04T10:47:20.146Z,98199.69
2022-08-04T10:49:54.367Z,98196.03
2022-08-04T10:52:34.348Z,98196.63
2022-08-04T10:55:12.973Z,98204.00
2022-08-04T10:57:41.406Z,98192.13
2022-08-04T11:00:15.321Z,98193.50
2022-08-04T11:03:01.958Z,98186.28
2022-08-04T11:05:59.116Z,98193.16
2022-08-04T11:08:34.549Z,98189.00
2022-08-04T11:11:26.389Z,98183.03
2022-08-04T11:14:09.144Z,98184.25
2022-08-04T11:16:55.973Z,98183.63
2022-08-04T11:20:31.808Z,98175.88
2022-08-04T11:23:06.937Z,98180.44
2022-08-04T11:25:49.642Z,98182.06
2022-08-04T11:28:30.402Z,98175.53
2022-08-04T11:31:11.078Z,98166.94
2022-08-04T11:33:44.045Z,98170.25
2022-08-04T11:36:29.499Z,98172.16
2022-08-04T11:39:11.389Z,98174.00
2022-08-04T11:41:46.985Z,98173.44
2022-08-04T11:44:24.144Z,98173.97
2022-08-04T11:46:57.021Z,98173.09
2022-08-04T11:49:57.361Z,98172.53
2022-08-04T11:52:27.095Z,98164.13
2022-08-04T11:54:54.903Z,98165.94
2022-08-04T11:57:25.851Z,98163.81
2022-08-04T12:00:07.144Z,98159.16
2022-08-04T12:02:56.053Z,98157.44
2022-08-04T12:05:37.102Z,98158.66
2022-08-04T12:08:31.829Z,98156.03
2022-08-04T12:11:09.086Z,98152.31
2022-08-04T12:13:50.897Z,98155.38
2022-08-04T12:16:42.527Z,98159.09
2022-08-04T12:19:38.657Z,98154.44
2022-08-04T12:22:28.350Z,98149.16
2022-08-04T12:25:08.617Z,98150.16
2022-08-04T12:27:57.978Z,98145.22
2022-08-04T12:30:59.027Z,98135.00
2022-08-04T12:34:05.122Z,98135.22
2022-08-04T12:36:43.263Z,98135.56
2022-08-04T12:39:15.494Z,98136.28
2022-08-04T12:41:51.380Z,98132.81
2022-08-04T12:44:36.621Z,98131.00
2022-08-04T12:47:26.718Z,98125.88
2022-08-04T12:50:00.743Z,98110.84
2022-08-04T12:55:18.160Z,98119.16
2022-08-04T12:57:46.904Z,98112.38
2022-08-04T13:00:29.272Z,98106.75
2022-08-04T13:03:03.522Z,98115.81
2022-08-04T13:05:31.729Z,98111.25
2022-08-04T13:07:58.619Z,98117.41
2022-08-04T13:10:30.294Z,98103.84
2022-08-04T13:12:58.944Z,98103.94
2022-08-04T13:15:28.195Z,98098.94
2022-08-04T13:18:14.787Z,98100.03
2022-08-04T13:20:43.961Z,98093.34
2022-08-04T13:23:21.368Z,98092.84
2022-08-04T13:26:42.868Z,98093.84
2022-08-04T13:28:42.832Z,98091.72
2022-08-04T13:31:14.131Z,98082.97
2022-08-04T13:33:47.497Z,98076.66
2022-08-04T13:36:15.968Z,98063.78
2022-08-04T13:38:50.061Z,98077.66
2022-08-04T13:41:18.595Z,98071.63
2022-08-04T13:44:18.280Z,98065.88
2022-08-04T13:46:50.875Z,98065.72
2022-08-04T13:52:11.089Z,98066.84
2022-08-04T13:54:44.060Z,98056.31
2022-08-04T13:57:19.633Z,98054.88
2022-08-04T13:59:51.772Z,98052.97
2022-08-04T14:02:44.020Z,98044.59
2022-08-04T14:05:33.856Z,98041.41
2022-08-04T14:08:11.983Z,98050.66
2022-08-04T14:10:40.336Z,98042.63
2022-08-04T14:13:07.267Z,98044.06
2022-08-04T14:16:02.375Z,98040.84
2022-08-04T14:18:34.569Z,98039.94
2022-08-04T14:21:12.284Z,98041.41
2022-08-04T14:23:47.599Z,98038.34
2022-08-04T14:26:16.718Z,98033.41
2022-08-04T14:29:25.629Z,98029.94
2022-08-04T14:31:31.720Z,98025.97
2022-08-04T14:34:02.663Z,98030.63
2022-08-04T14:37:16.466Z,98026.63
2022-08-04T14:40:08.861Z,98023.75
2022-08-04T14:42:53.774Z,98024.63
2022-08-04T14:45:32.620Z,98021.38
2022-08-04T14:48:01.063Z,98015.88
2022-08-04T14:50:45.298Z,98020.66
2022-08-04T14:53:20.239Z,98013.34
2022-08-04T14:55:52.480Z,98010.84
2022-08-04T14:58:35.425Z,98008.28
2022-08-04T15:01:11.804Z,98010.41
2022-08-04T15:03:49.877Z,98016.88
2022-08-04T15:06:22.697Z,98018.16
2022-08-04T15:08:55.138Z,98014.25
2022-08-04T15:11:22.695Z,98012.56
2022-08-04T15:13:50.396Z,98007.97
2022-08-04T15:16:17.013Z,98010.75
2022-08-04T15:18:43.545Z,98009.75
2022-08-04T15:21:16.426Z,98003.47
2022-08-04T15:23:42.945Z,98001.63
2022-08-04T15:26:13.844Z,97999.75
2022-08-04T15:28:46.086Z,97996.41
2022-08-04T15:32:05.881Z,97995.25
2022-08-04T15:34:02.471Z,97990.41
2022-08-04T15:36:37.941Z,97987.72
2022-08-04T15:39:43.427Z,97994.69
2022-08-04T15:42:32.410Z,97984.22
2022-08-04T15:45:21.509Z,97982.31
2022-08-04T15:48:03.034Z,97981.00
2022-08-04T15:50:29.867Z,97982.53
2022-08-04T15:53:09.982Z,97985.97
2022-08-04T15:55:44.109Z,97976.50
2022-08-04T15:58:16.561Z,97981.66
2022-08-04T16:00:53.988Z,97970.78
2022-08-04T16:03:54.553Z,97970.31
2022-08-04T16:06:22.361Z,97969.94
2022-08-04T16:08:57.937Z,97969.44
2022-08-04T16:11:31.757Z,97966.91
2022-08-04T16:13:58.507Z,97964.66
2022-08-04T16:16:49.159Z,97957.72
2022-08-04T16:19:35.334Z,97959.09
2022-08-04T16:22:03.949Z,97957.72
2022-08-04T16:24:36.175Z,97965.13
2022-08-04T16:27:06.374Z,97968.13
2022-08-04T16:29:34.484Z,97967.91
2022-08-04T16:32:13.322Z,97963.69
2022-08-04T16:35:19.972Z,97957.03
2022-08-04T16:37:46.424Z,97956.41
2022-08-04T16:40:38.888Z,97958.16
2022-08-04T16:43:18.126Z,97962.09
2022-08-04T16:45:50.862Z,97955.72
2022-08-04T16:48:22.322Z,97953.31
2022-08-04T16:50:57.118Z,97954.41
2022-08-04T16:54:02.998Z,97955.16
2022-08-04T16:56:14.776Z,97952.72
2022-08-04T16:58:50.076Z,97957.78
2022-08-04T17:01:27.662Z,97955.06
2022-08-04T17:04:05.068Z,97949.06
2022-08-04T17:06:40.105Z,97953.38
2022-08-04T17:09:10.532Z,97955.47
2022-08-04T17:11:37.515Z,97959.25
2022-08-04T17:14:06.114Z,97952.22
2022-08-04T17:16:35.146Z,97952.94
2022-08-04T17:19:02.075Z,97954.97
2022-08-04T17:21:31.041Z,97951.41
2022-08-04T17:24:13.466Z,97947.13
2022-08-04T17:26:53.788Z,97944.75
2022-08-04T17:29:21.552Z,97955.84
2022-08-04T17:31:48.208Z,97946.00
2022-08-04T17:34:19.377Z,97948.06
2022-08-04T17:36:47.695Z,97953.78
2022-08-04T17:39:21.313Z,97943.75
2022-08-04T17:41:49.061Z,97945.09
2022-08-04T17:44:16.381Z,97947.94
2022-08-04T17:46:49.012Z,97946.00
2022-08-04T17:49:18.346Z,97946.09
2022-08-04T17:52:04.526Z,97953.28
2022-08-04T17:54:37.097Z,97949.66
2022-08-04T17:57:15.757Z,97945.88
2022-08-04T17:59:57.765Z,97948.44
2022-08-04T18:02:32.708Z,97946.94
2022-08-04T18:05:05.627Z,97954.69
2022-08-04T18:08:35.194Z,97953.19
2022-08-04T18:10:52.217Z,97952.81
2022-08-04T18:13:24.327Z,97950.88
2022-08-04T18:15:59.870Z,97963.78
2022-08-04T18:18:26.418Z,97959.53
2022-08-04T18:20:53.361Z,97960.00
2022-08-04T18:23:20.068Z,97962.47
2022-08-04T18:25:58.827Z,97961.81
2022-08-04T18:28:26.900Z,97966.72
2022-08-04T18:30:56.066Z,97965.28
2022-08-04T18:33:39.548Z,97977.88
2022-08-04T18:36:33.611Z,97979.97
2022-08-04T18:38:58.913Z,97986.91
2022-08-04T18:41:51.647Z,97979.91
2022-08-04T18:44:15.934Z,97978.84
2022-08-04T18:46:52.691Z,97981.16
2022-08-04T18:50:32.664Z,97971.22
2022-08-04T18:52:14.884Z,97978.13
2022-08-04T18:54:42.064Z,97975.81
2022-08-04T18:57:32.600Z,97973.44
2022-08-04T18:59:55.475Z,97974.59
2022-08-04T19:02:22.146Z,97978.53
2022-08-04T19:04:53.137Z,97976.91
2022-08-04T19:07:33.821Z,97984.09
2022-08-04T19:10:06.820Z,97980.88
2022-08-04T19:12:50.472Z,97985.31
2022-08-04T19:15:19.207Z,97991.69
2022-08-04T19:20:32.619Z,98023.34
2022-08-04T19:24:29.484Z,98021.41
2022-08-04T19:26:02.140Z,98023.03
2022-08-04T19:28:35.012Z,98026.25
2022-08-04T19:31:04.257Z,98023.84
2022-08-04T19:33:59.353Z,98018.66
2022-08-04T19:36:18.999Z,98023.84
2022-08-04T19:38:45.681Z,98020.69
2022-08-04T19:41:14.347Z,98033.47
2022-08-04T19:43:43.758Z,98031.94
2022-08-04T19:46:28.999Z,98040.72
2022-08-04T19:48:59.729Z,98043.88
2022-08-04T19:51:30.670Z,98041.50
2022-08-04T19:56:48.775Z,98039.91
2022-08-04T19:59:15.331Z,98048.25
2022-08-04T20:01:45.568Z,98044.28
2022-08-04T20:04:14.330Z,98050.63
2022-08-04T20:06:42.452Z,98051.81
2022-08-04T20:09:26.350Z,98057.00
2022-08-04T20:11:57.279Z,98062.16
2022-08-04T20:14:31.093Z,98062.19
2022-08-04T20:16:59.799Z,98055.81
2022-08-04T20:19:26.231Z,98064.13
2022-08-04T20:24:47.974Z,98060.56
2022-08-04T20:27:21.484Z,98058.16
2022-08-04T20:29:49.922Z,98062.94
2022-08-04T20:32:21.885Z,98058.97
2022-08-04T20:34:50.307Z,98057.00
2022-08-04T20:37:18.294Z,98055.00
2022-08-04T20:39:44.863Z,98055.00
2022-08-04T20:42:26.918Z,98052.59
2022-08-04T20:44:55.535Z,98067.72
2022-08-04T20:47:23.181Z,98064.53
2022-08-04T20:49:49.855Z,98071.66
2022-08-04T20:52:20.367Z,98065.28
2022-08-04T20:54:48.663Z,98074.75
2022-08-04T20:57:16.739Z,98074.75
2022-08-04T20:59:59.395Z,98075.53
2022-08-04T21:02:27.458Z,98076.31
2022-08-04T21:04:54.197Z,98078.25
2022-08-04T21:07:22.252Z,98086.88
2022-08-04T21:09:50.726Z,98087.59
2022-08-04T21:12:28.105Z,98093.88
2022-08-04T21:14:57.388Z,98091.06
2022-08-04T21:17:58.348Z,98091.00
2022-08-04T21:20:12.778Z,98087.84
2022-08-04T21:22:40.612Z,98092.53
2022-08-04T21:25:08.023Z,98088.34
2022-08-04T21:27:43.404Z,98098.22
2022-08-04T21:30:25.196Z,98095.13
2022-08-04T21:32:53.263Z,98092.34
2022-08-04T21:35:36.760Z,98098.72
2022-08-04T21:40:53.605Z,98096.00
2022-08-04T21:43:23.783Z,98098.72
2022-08-04T21:45:54.912Z,98097.13
2022-08-04T21:48:22.434Z,98099.75
2022-08-04T21:50:50.280Z,98095.25
2022-08-04T21:53:19.722Z,98098.22
2022-08-04T21:56:06.846Z,98094.97
2022-08-04T21:58:33.582Z,98103.47
2022-08-04T22:01:00.216Z,98114.56
2022-08-04T22:03:52.336Z,98102.53
2022-08-04T22:09:01.235Z,98118.00
2022-08-04T22:11:43.924Z,98114.25
2022-08-04T22:14:15.783Z,98107.69
2022-08-04T22:16:44.885Z,98111.31
2022-08-04T22:19:11.376Z,98113.63
2022-08-04T22:21:46.676Z,98118.25
2022-08-04T22:24:14.538Z,98119.34
2022-08-04T22:26:41.613Z,98127.91
2022-08-04T22:29:14.380Z,98128.25
2022-08-04T22:31:56.296Z,98128.47
2022-08-04T22:34:27.830Z,98126.41
2022-08-04T22:36:56.969Z,98130.38
2022-08-04T22:39:27.735Z,98126.44
2022-08-04T22:42:03.865Z,98125.56
2022-08-04T22:44:32.467Z,98119.84
2022-08-04T22:47:00.257Z,98121.78
2022-08-04T22:49:31.483Z,98117.84
2022-08-04T22:51:58.606Z,98108.56
2022-08-04T22:54:26.025Z,98104.16
2022-08-04T22:56:55.354Z,98112.94
2022-08-04T22:59:23.891Z,98117.56
2022-08-04T23:01:59.755Z,98115.94
2022-08-04T23:04:30.194Z,98116.44
2022-08-04T23:06:56.860Z,98110.25
2022-08-04T23:09:48.771Z,98113.75
2022-08-04T23:12:27.239Z,98115.69
2022-08-04T23:14:58.300Z,98119.63
2022-08-04T23:17:27.429Z,98121.88
2022-08-04T23:19:58.781Z,98128.78
2022-08-04T23:22:41.561Z,98117.59
2022-08-04T23:25:16.112Z,98129.91
2022-08-04T23:27:50.601Z,98131.44
2022-08-04T23:30:19.926Z,98131.22
2022-08-04T23:32:48.521Z,98134.78
2022-08-04T23:35:15.299Z,98132.88
2022-08-04T23:37:48.355Z,98139.78
2022-08-04T23:40:32.642Z,98145.25
2022-08-04T23:43:00.390Z,98147.56
2022-08-04T23:46:06.596Z,98157.00
2022-08-04T23:48:19.433Z,98176.31
2022-08-04T23:50:48.355Z,98193.44
2022-08-04T23:53:18.543Z,98189.88
2022-08-04T23:55:48.941Z,98190.25
2022-08-04T23:58:20.958Z,98180.31
